Time;durP1;ratioP1;P1;durP2;ratioP2;P2;SDS_P1;SDS_P2;PMS_P1;PMS_P2;Temp;Humidity;BMP_temperature;BMP_pressure;BME280_temperature;BME280_humidity;BME280_pressure;Samples;Min_cycle;Max_cycle;Signal;HPM_P1;HPM_P2
2021/03/15 00:00:55;;;;;;;14.50;7.87;;;;;;;1.31;94.62;95946.66;4918583;29;20456;-77
2021/03/15 00:03:22;;;;;;;13.60;8.70;;;;;;;1.37;94.79;95947.94;4917421;29;20087;-78
2021/03/15 00:05:47;;;;;;;15.63;7.70;;;;;;;1.40;94.69;95951.16;4928905;29;20045;-78
2021/03/15 00:08:13;;;;;;;15.20;8.47;;;;;;;1.36;94.47;95951.47;4930660;29;20488;-78
2021/03/15 00:10:39;;;;;;;12.60;7.70;;;;;;;1.42;94.29;95944.09;4909401;29;20048;-77
2021/03/15 00:13:07;;;;;;;12.93;8.63;;;;;;;1.40;94.23;95945.13;4912619;29;20059;-77
2021/03/15 00:15:34;;;;;;;10.97;7.60;;;;;;;1.47;94.13;95942.94;4910246;29;20036;-77
2021/03/15 00:18:00;;;;;;;14.70;7.73;;;;;;;1.48;94.19;95937.66;4917541;29;20488;-78
2021/03/15 00:20:26;;;;;;;12.30;7.47;;;;;;;1.47;94.39;95932.56;4912249;29;20479;-77
2021/03/15 00:22:52;;;;;;;10.57;7.80;;;;;;;1.48;94.52;95944.59;4918964;29;20031;-78
2021/03/15 00:25:18;;;;;;;14.83;10.13;;;;;;;1.49;94.49;95944.47;4904772;29;20447;-77
2021/03/15 00:27:45;;;;;;;11.87;8.07;;;;;;;1.46;94.01;95936.09;4901778;29;20034;-77
2021/03/15 00:30:14;;;;;;;12.27;8.30;;;;;;;1.47;94.15;95941.16;4916202;29;20475;-77
2021/03/15 00:32:43;;;;;;;11.73;7.90;;;;;;;1.54;94.34;95941.56;4914766;29;20483;-77
2021/03/15 00:35:11;;;;;;;16.53;10.00;;;;;;;1.46;93.92;95936.94;4901888;29;20459;-77
2021/03/15 00:37:38;;;;;;;12.47;7.47;;;;;;;1.40;94.67;95934.78;4919503;29;20476;-76
2021/03/15 00:40:06;;;;;;;14.33;8.23;;;;;;;1.40;94.22;95932.19;4937137;29;20459;-77
2021/03/15 00:42:32;;;;;;;12.60;7.90;;;;;;;1.41;94.32;95936.44;4911177;29;20516;-77
2021/03/15 00:44:58;;;;;;;12.47;7.73;;;;;;;1.29;94.15;95924.38;4915876;29;20451;-77
2021/03/15 00:47:24;;;;;;;13.07;7.80;;;;;;;1.33;94.18;95933.56;4919540;29;20488;-77
2021/03/15 00:49:49;;;;;;;11.83;7.97;;;;;;;1.30;94.14;95931.19;4919612;29;20027;-77
2021/03/15 00:52:15;;;;;;;13.27;7.67;;;;;;;1.24;94.43;95924.72;4909622;29;20118;-76
2021/03/15 00:54:41;;;;;;;13.20;7.37;;;;;;;1.25;94.30;95941.06;4902382;29;20036;-77
2021/03/15 00:57:23;;;;;;;12.90;7.27;;;;;;;1.25;93.92;95928.13;4915527;29;20034;-77
2021/03/15 00:59:49;;;;;;;12.70;7.73;;;;;;;1.23;94.55;95938.56;4900626;29;20535;-77
2021/03/15 01:02:16;;;;;;;13.13;7.63;;;;;;;1.28;94.15;95938.25;4914428;29;20545;-77
2021/03/15 01:04:43;;;;;;;14.23;8.93;;;;;;;1.22;94.52;95933.50;4902087;29;21023;-77
2021/03/15 01:07:24;;;;;;;11.90;8.00;;;;;;;1.22;94.22;95925.75;4901681;29;20487;-77
2021/03/15 01:09:50;;;;;;;11.73;7.23;;;;;;;1.20;94.15;95930.19;4916391;29;20444;-77
2021/03/15 01:12:39;;;;;;;11.10;6.67;;;;;;;1.15;94.28;95933.13;4919663;29;20024;-77
2021/03/15 01:15:08;;;;;;;11.63;7.43;;;;;;;1.15;94.30;95928.75;4908737;29;20941;-77
2021/03/15 01:17:38;;;;;;;11.73;7.50;;;;;;;1.10;94.52;95936.03;4919726;29;20495;-76
2021/03/15 01:20:06;;;;;;;11.83;7.50;;;;;;;1.15;94.56;95936.53;4901885;29;21077;-76
2021/03/15 01:22:32;;;;;;;9.57;6.13;;;;;;;1.13;94.54;95927.22;4914837;29;20035;-77
2021/03/15 01:24:58;;;;;;;9.17;6.07;;;;;;;1.12;94.63;95925.56;4937659;29;20451;-76
2021/03/15 01:27:24;;;;;;;10.33;6.37;;;;;;;1.04;93.84;95925.25;4928173;29;20587;-77
2021/03/15 01:29:50;;;;;;;9.00;5.87;;;;;;;1.00;94.21;95924.66;4927742;29;20095;-76
2021/03/15 01:32:16;;;;;;;7.83;5.57;;;;;;;0.93;93.94;95926.03;4917261;29;20055;-77
2021/03/15 01:34:41;;;;;;;10.17;5.80;;;;;;;0.89;94.14;95932.38;4923907;29;20495;-76
2021/03/15 01:37:07;;;;;;;9.80;5.83;;;;;;;0.65;93.79;95922.78;4921510;29;20682;-77
2021/03/15 01:39:33;;;;;;;8.27;4.93;;;;;;;0.52;94.17;95927.16;4926985;29;20039;-77
2021/03/15 01:42:00;;;;;;;8.70;4.93;;;;;;;0.41;93.97;95925.31;4922110;29;20133;-76
2021/03/15 01:44:25;;;;;;;7.53;5.03;;;;;;;0.43;94.57;95920.00;4931912;29;20050;-77
2021/03/15 01:46:51;;;;;;;7.27;4.60;;;;;;;0.44;94.33;95924.28;4924888;29;20460;-76
2021/03/15 01:49:17;;;;;;;7.17;4.70;;;;;;;0.38;94.12;95910.00;4917973;29;20031;-75
2021/03/15 01:51:44;;;;;;;7.00;4.40;;;;;;;0.38;94.60;95907.41;4929200;29;20509;-76
2021/03/15 01:54:12;;;;;;;8.27;4.10;;;;;;;0.33;94.87;95903.47;4910246;29;20636;-76
2021/03/15 01:56:38;;;;;;;6.37;4.17;;;;;;;0.39;94.42;95905.63;4911297;29;20534;-76
2021/03/15 01:59:04;;;;;;;6.93;4.47;;;;;;;0.35;94.55;95901.63;4909862;29;20476;-76
2021/03/15 02:01:29;;;;;;;7.47;4.63;;;;;;;0.35;94.54;95888.69;4911614;29;20034;-76
2021/03/15 02:03:55;;;;;;;8.10;5.43;;;;;;;0.34;94.81;95894.78;4921402;29;20042;-76
2021/03/15 02:06:21;;;;;;;7.63;4.97;;;;;;;0.33;95.01;95881.00;4923185;29;20028;-77
2021/03/15 02:08:47;;;;;;;7.87;5.37;;;;;;;0.31;95.16;95888.06;4921643;29;20039;-77
2021/03/15 02:11:25;;;;;;;8.77;5.83;;;;;;;0.33;95.35;95885.38;4935864;29;20094;-76
2021/03/15 02:14:00;;;;;;;8.23;5.87;;;;;;;0.34;95.17;95872.34;4919379;29;20562;-76
2021/03/15 02:16:37;;;;;;;9.67;6.37;;;;;;;0.27;95.55;95872.84;4922832;29;20470;-76
2021/03/15 02:19:37;;;;;;;8.50;5.90;;;;;;;0.30;95.00;95880.41;4919698;29;20495;-76
2021/03/15 02:22:40;;;;;;;9.80;5.87;;;;;;;0.30;95.34;95875.22;4895758;29;20503;-77
2021/03/15 02:25:06;;;;;;;9.63;5.90;;;;;;;0.34;95.43;95874.09;4907186;29;20474;-76
2021/03/15 02:27:47;;;;;;;9.83;6.97;;;;;;;0.30;95.56;95870.88;4921412;29;20475;-76
2021/03/15 02:30:37;;;;;;;9.93;6.20;;;;;;;0.25;95.14;95866.97;4918774;29;20139;-76
2021/03/15 02:33:15;;;;;;;11.73;7.40;;;;;;;0.37;96.05;95866.97;4937079;29;20430;-77
2021/03/15 02:35:43;;;;;;;11.13;7.53;;;;;;;0.30;95.46;95859.69;4904958;29;20464;-77
2021/03/15 02:38:12;;;;;;;11.53;7.80;;;;;;;0.29;95.91;95855.47;4907870;29;21030;-77
2021/03/15 02:40:53;;;;;;;13.80;8.53;;;;;;;0.32;95.99;95855.25;4907446;29;20496;-76
2021/03/15 02:43:22;;;;;;;12.27;8.43;;;;;;;0.40;96.14;95840.88;4905258;29;20487;-77
2021/03/15 02:45:56;;;;;;;13.27;9.03;;;;;;;0.36;95.88;95843.78;4911418;29;20467;-76
2021/03/15 02:48:25;;;;;;;14.40;8.57;;;;;;;0.40;96.07;95840.03;4905177;29;20513;-77
2021/03/15 02:50:52;;;;;;;16.57;9.70;;;;;;;0.47;96.01;95831.75;4913937;29;20463;-77
2021/03/15 02:53:20;;;;;;;12.80;8.70;;;;;;;0.48;95.78;95837.75;4915508;29;20475;-77
2021/03/15 02:55:49;;;;;;;12.37;8.60;;;;;;;0.52;95.88;95823.66;4918372;29;20478;-76
2021/03/15 02:58:17;;;;;;;12.33;8.97;;;;;;;0.49;95.76;95823.88;4906117;29;20479;-77
2021/03/15 03:00:44;;;;;;;11.00;8.10;;;;;;;0.47;95.61;95815.41;4927687;29;20874;-77
2021/03/15 03:03:11;;;;;;;13.63;8.37;;;;;;;0.44;95.62;95819.03;4937464;29;20518;-77
2021/03/15 03:05:37;;;;;;;10.67;7.83;;;;;;;0.47;95.93;95824.00;4914272;29;21206;-76
2021/03/15 03:08:05;;;;;;;15.93;10.60;;;;;;;0.48;95.84;95819.66;4917898;29;21167;-78
2021/03/15 03:10:34;;;;;;;14.70;8.27;;;;;;;0.57;95.68;95811.25;4928640;29;20471;-78
2021/03/15 03:13:01;;;;;;;11.80;8.13;;;;;;;0.61;96.10;95817.84;4924131;29;20471;-77
2021/03/15 03:15:32;;;;;;;11.63;8.47;;;;;;;0.61;96.12;95815.25;4919507;29;20550;-77
2021/03/15 03:18:01;;;;;;;10.87;7.37;;;;;;;0.64;95.94;95816.81;4921955;29;20507;-77
2021/03/15 03:20:29;;;;;;;11.73;7.77;;;;;;;0.62;95.50;95814.31;4898641;29;20515;-77
2021/03/15 03:22:58;;;;;;;12.10;7.67;;;;;;;0.67;95.82;95813.97;4909934;29;20458;-76
2021/03/15 03:25:25;;;;;;;13.60;8.30;;;;;;;0.60;96.04;95816.16;4906048;29;20475;-77
2021/03/15 03:27:56;;;;;;;14.90;7.80;;;;;;;0.66;95.40;95815.75;4903487;29;20467;-77
2021/03/15 03:30:26;;;;;;;13.07;8.03;;;;;;;0.68;95.54;95819.06;4917178;29;20988;-77
2021/03/15 03:32:54;;;;;;;14.20;8.70;;;;;;;0.63;95.67;95809.97;4921728;29;20440;-77
2021/03/15 03:35:20;;;;;;;14.60;8.43;;;;;;;0.69;95.84;95807.75;4922550;29;20511;-76
2021/03/15 03:37:46;;;;;;;12.47;7.43;;;;;;;0.76;95.54;95800.38;4920536;29;20455;-77
2021/03/15 03:40:14;;;;;;;14.07;8.37;;;;;;;0.79;95.29;95792.41;4896239;29;20496;-77
2021/03/15 03:42:39;;;;;;;11.47;7.50;;;;;;;0.81;95.72;95797.50;4917023;29;20464;-77
2021/03/15 03:45:06;;;;;;;13.90;7.67;;;;;;;0.77;95.50;95789.13;4936877;29;20559;-76
2021/03/15 03:47:33;;;;;;;11.97;7.33;;;;;;;0.79;95.28;95789.81;4918023;29;20035;-77
2021/03/15 03:49:59;;;;;;;13.43;6.90;;;;;;;0.72;95.40;95786.03;4911791;29;20466;-76
2021/03/15 03:52:29;;;;;;;11.10;6.87;;;;;;;0.73;95.63;95777.31;4908154;29;20499;-76
2021/03/15 03:54:59;;;;;;;14.07;7.07;;;;;;;0.80;95.90;95770.75;4900104;29;22155;-76
2021/03/15 03:57:32;;;;;;;11.73;6.67;;;;;;;0.89;95.34;95769.28;4915661;29;20511;-76
2021/03/15 04:00:14;;;;;;;9.33;5.87;;;;;;;0.87;95.00;95768.53;4916239;29;20567;-76
2021/03/15 04:02:59;;;;;;;12.60;6.23;;;;;;;0.88;95.06;95760.69;4903503;29;20479;-76
2021/03/15 04:05:27;;;;;;;13.47;6.47;;;;;;;0.91;95.08;95763.06;4904840;29;20471;-76
2021/03/15 04:08:01;;;;;;;11.60;5.90;;;;;;;0.93;94.44;95755.16;4926352;29;20471;-76
2021/03/15 04:10:30;;;;;;;11.90;6.40;;;;;;;0.97;94.85;95750.59;4928442;29;20764;-76
2021/03/15 04:13:03;;;;;;;13.40;5.67;;;;;;;0.98;94.40;95742.72;4919315;29;20451;-76
2021/03/15 04:15:30;;;;;;;7.57;4.55;;;;;;;1.00;94.29;95751.19;4907354;29;20530;-77
2021/03/15 04:17:57;;;;;;;12.53;5.80;;;;;;;1.06;94.40;95749.91;4919300;29;20036;-76
2021/03/15 04:20:29;;;;;;;11.53;6.17;;;;;;;1.11;94.43;95753.81;4918739;29;20475;-77
2021/03/15 04:22:57;;;;;;;11.10;6.57;;;;;;;1.08;94.22;95759.22;4901606;29;20538;-76
2021/03/15 04:25:26;;;;;;;12.93;5.57;;;;;;;1.13;94.14;95762.28;4920302;29;20543;-77
2021/03/15 04:27:53;;;;;;;9.93;5.73;;;;;;;1.13;94.11;95757.13;4895007;29;20479;-77
2021/03/15 04:30:21;;;;;;;9.80;5.77;;;;;;;1.09;93.92;95750.50;4914540;29;20491;-77
2021/03/15 04:32:53;;;;;;;9.90;5.53;;;;;;;1.07;94.35;95752.38;4912165;29;20448;-76
2021/03/15 04:35:37;;;;;;;15.00;7.17;;;;;;;1.09;94.29;95754.88;4908339;29;20458;-76
2021/03/15 04:38:09;;;;;;;13.17;6.00;;;;;;;1.06;93.90;95742.16;4918963;29;20484;-76
2021/03/15 04:40:36;;;;;;;9.37;5.03;;;;;;;1.04;94.71;95741.44;4918863;29;20459;-77
2021/03/15 04:43:03;;;;;;;9.47;4.90;;;;;;;1.02;94.04;95741.56;4935364;29;20456;-76
2021/03/15 04:45:34;;;;;;;9.63;4.90;;;;;;;0.96;94.41;95744.59;4926818;29;20467;-76
2021/03/15 04:48:03;;;;;;;12.80;4.93;;;;;;;0.87;94.90;95735.75;4933302;29;20514;-78
2021/03/15 04:50:30;;;;;;;12.27;5.57;;;;;;;0.92;94.50;95733.63;4900219;29;20499;-77
2021/03/15 04:52:57;;;;;;;8.80;5.00;;;;;;;0.83;94.72;95725.72;4919582;29;20447;-77
2021/03/15 04:55:26;;;;;;;19.23;6.03;;;;;;;0.88;94.37;95718.44;4929475;29;20474;-76
2021/03/15 04:57:54;;;;;;;8.10;4.47;;;;;;;0.84;94.36;95719.59;4930763;29;20541;-76
2021/03/15 05:00:21;;;;;;;10.07;5.23;;;;;;;0.91;94.56;95713.03;4891835;29;20456;-77
2021/03/15 05:02:47;;;;;;;13.67;5.17;;;;;;;0.83;94.43;95710.19;4910762;29;20455;-77
2021/03/15 05:05:15;;;;;;;10.97;6.10;;;;;;;0.90;94.53;95712.19;4896488;29;20558;-76
2021/03/15 05:07:44;;;;;;;8.53;5.60;;;;;;;0.91;94.30;95713.03;4918498;29;20487;-77
2021/03/15 05:10:13;;;;;;;9.47;5.10;;;;;;;0.90;94.39;95713.97;4899365;29;20822;-77
2021/03/15 05:12:40;;;;;;;10.47;5.27;;;;;;;0.87;94.31;95712.44;4905314;29;21214;-77
2021/03/15 05:15:07;;;;;;;11.57;5.17;;;;;;;0.97;94.18;95704.81;4890967;29;20488;-76
2021/03/15 05:17:38;;;;;;;12.27;5.17;;;;;;;0.97;93.42;95709.97;4904189;29;20847;-76
2021/03/15 05:20:10;;;;;;;10.30;4.50;;;;;;;0.91;93.77;95703.50;4927504;29;20470;-78
2021/03/15 05:22:37;;;;;;;13.17;5.47;;;;;;;0.90;94.01;95706.19;4914932;29;20539;-78
2021/03/15 05:25:06;;;;;;;11.87;4.73;;;;;;;0.91;93.87;95700.09;4898926;29;20956;-78
2021/03/15 05:27:33;;;;;;;9.10;4.27;;;;;;;0.87;93.23;95698.66;4905794;29;21064;-76
2021/03/15 05:30:09;;;;;;;9.23;4.20;;;;;;;0.91;93.66;95700.09;4899853;29;20861;-77
2021/03/15 05:32:39;;;;;;;8.60;4.37;;;;;;;0.87;93.24;95698.66;4914290;29;20498;-76
2021/03/15 05:35:06;;;;;;;8.77;4.70;;;;;;;0.94;94.10;95690.34;4922075;29;20490;-77
2021/03/15 05:37:33;;;;;;;8.17;4.83;;;;;;;0.89;93.48;95689.03;4908356;29;20468;-76
2021/03/15 05:39:59;;;;;;;8.63;4.67;;;;;;;0.87;93.84;95677.94;4925733;29;21195;-76
2021/03/15 05:42:58;;;;;;;10.60;5.17;;;;;;;0.95;93.42;95667.88;4902863;29;20665;-77
2021/03/15 05:45:42;;;;;;;7.93;4.47;;;;;;;0.96;93.71;95682.44;4909397;29;20039;-76
2021/03/15 05:48:07;;;;;;;6.30;3.90;;;;;;;1.00;93.46;95670.09;4918847;29;20468;-76
2021/03/15 05:51:03;;;;;;;10.43;4.07;;;;;;;1.01;92.89;95669.19;4926153;29;20548;-76
2021/03/15 05:54:06;;;;;;;7.47;4.33;;;;;;;1.04;92.76;95674.97;4925394;29;20040;-76
2021/03/15 05:57:02;;;;;;;12.07;5.03;;;;;;;1.08;92.80;95665.19;4899549;29;20465;-76
2021/03/15 05:59:56;;;;;;;11.03;4.57;;;;;;;1.06;92.63;95661.88;4925991;29;20472;-76
2021/03/15 06:02:43;;;;;;;9.48;4.30;;;;;;;1.06;92.83;95660.09;4898597;29;21225;-76
2021/03/15 06:05:19;;;;;;;10.97;3.77;;;;;;;1.12;92.82;95666.59;4915632;29;20102;-75
2021/03/15 06:07:51;;;;;;;8.93;4.30;;;;;;;1.09;92.84;95656.47;4918561;29;20481;-78
2021/03/15 06:10:58;;;;;;;7.20;3.77;;;;;;;1.02;93.06;95650.94;4909696;29;20805;-75
2021/03/15 06:13:27;;;;;;;9.10;4.00;;;;;;;1.12;93.21;95654.47;4888998;29;20475;-75
2021/03/15 06:15:53;;;;;;;8.40;4.00;;;;;;;1.14;92.24;95650.00;4894433;29;20459;-76
2021/03/15 06:18:18;;;;;;;7.87;3.80;;;;;;;1.24;92.68;95649.28;4916852;29;20538;-76
2021/03/15 06:20:47;;;;;;;9.10;4.60;;;;;;;1.31;92.39;95640.16;4902213;29;20039;-76
2021/03/15 06:23:16;;;;;;;10.43;4.10;;;;;;;1.28;92.51;95636.03;4903593;29;20032;-75
2021/03/15 06:25:46;;;;;;;8.30;3.90;;;;;;;1.25;92.57;95632.84;4921308;29;20465;-76
2021/03/15 06:28:12;;;;;;;9.30;4.00;;;;;;;1.25;92.72;95625.06;4922191;29;20859;-75
2021/03/15 06:30:38;;;;;;;10.27;4.20;;;;;;;1.26;92.35;95631.88;4918951;29;20463;-75
2021/03/15 06:33:05;;;;;;;8.97;3.90;;;;;;;1.21;92.48;95618.44;4921629;29;20523;-75
2021/03/15 06:35:35;;;;;;;8.63;3.67;;;;;;;1.18;92.71;95625.53;4921819;29;20509;-76
2021/03/15 06:38:02;;;;;;;14.17;6.10;;;;;;;1.20;92.91;95616.81;4938484;29;20470;-76
2021/03/15 06:40:29;;;;;;;10.67;4.47;;;;;;;1.11;93.30;95614.00;4921376;29;20450;-76
2021/03/15 06:42:56;;;;;;;8.87;4.00;;;;;;;1.11;93.21;95615.75;4918636;29;20479;-75
2021/03/15 06:45:22;;;;;;;12.00;4.60;;;;;;;1.02;93.10;95612.09;4887383;29;20459;-75
2021/03/15 06:47:50;;;;;;;13.37;4.63;;;;;;;1.08;93.19;95618.59;4924824;29;20472;-75
2021/03/15 06:50:17;;;;;;;11.63;5.50;;;;;;;1.03;93.02;95611.13;4911047;29;20036;-75
2021/03/15 06:52:55;;;;;;;12.27;4.97;;;;;;;1.01;93.15;95622.59;4919426;29;21097;-76
2021/03/15 06:55:48;;;;;;;9.63;4.70;;;;;;;1.07;92.64;95617.72;4906000;29;20463;-76
2021/03/15 06:58:33;;;;;;;9.43;4.93;;;;;;;1.17;93.15;95613.53;4892760;29;20484;-75
2021/03/15 07:01:22;;;;;;;7.87;3.90;;;;;;;1.18;92.70;95615.16;4920732;29;20454;-76
2021/03/15 07:03:50;;;;;;;7.77;3.87;;;;;;;1.23;92.49;95611.41;4922592;29;20489;-76
2021/03/15 07:06:19;;;;;;;6.93;3.63;;;;;;;1.30;92.73;95610.81;4922851;29;20492;-75
2021/03/15 07:08:46;;;;;;;7.33;3.47;;;;;;;1.16;92.19;95611.84;4913860;29;20463;-76
2021/03/15 07:11:24;;;;;;;7.33;3.57;;;;;;;1.24;92.65;95600.09;4905861;29;20459;-76
2021/03/15 07:13:50;;;;;;;9.07;3.53;;;;;;;1.22;92.09;95602.00;4917264;29;20551;-76
2021/03/15 07:16:28;;;;;;;7.63;3.57;;;;;;;1.33;92.42;95604.56;4903850;29;20452;-75
2021/03/15 07:18:55;;;;;;;6.53;3.60;;;;;;;1.33;92.27;95607.16;4911536;29;20490;-76
2021/03/15 07:21:38;;;;;;;8.60;3.40;;;;;;;1.18;92.57;95606.59;4932178;29;20451;-75
2021/03/15 07:24:11;;;;;;;6.03;3.20;;;;;;;1.14;92.65;95603.41;4922109;29;20559;-75
2021/03/15 07:26:43;;;;;;;6.45;3.00;;;;;;;1.25;92.30;95606.94;4947548;29;21035;-75
2021/03/15 07:29:12;;;;;;;5.33;2.83;;;;;;;1.25;92.49;95605.16;4924034;29;20036;-76
2021/03/15 07:31:38;;;;;;;9.10;3.40;;;;;;;1.33;92.76;95607.16;4917724;29;20440;-76
2021/03/15 07:34:03;;;;;;;6.87;3.80;;;;;;;1.38;92.77;95599.88;4922901;29;20761;-76
2021/03/15 07:36:31;;;;;;;8.07;3.80;;;;;;;1.33;92.06;95596.78;4939827;29;20023;-76
2021/03/15 07:38:58;;;;;;;8.87;4.00;;;;;;;1.44;92.83;95601.97;4925751;29;20047;-75
2021/03/15 07:41:25;;;;;;;8.57;4.60;;;;;;;1.44;93.27;95601.97;4906975;29;20463;-76
2021/03/15 07:43:56;;;;;;;10.03;3.93;;;;;;;1.50;92.92;95604.09;4923517;29;20459;-75
2021/03/15 07:46:27;;;;;;;6.40;2.53;;;;;;;1.58;92.39;95596.56;4930011;29;20536;-76
2021/03/15 07:49:01;;;;;;;3.73;1.77;;;;;;;1.65;92.05;95597.72;4905781;29;20516;-75
2021/03/15 07:51:32;;;;;;;6.13;1.87;;;;;;;1.68;91.74;95594.06;4920036;29;20548;-76
2021/03/15 07:54:07;;;;;;;3.07;1.73;;;;;;;1.73;91.62;95598.88;4911316;29;21228;-76
2021/03/15 07:56:33;;;;;;;5.00;2.13;;;;;;;1.81;92.33;95601.69;4919306;29;20509;-75
2021/03/15 07:58:59;;;;;;;3.67;1.80;;;;;;;2.01;91.84;95598.34;4913187;29;20605;-76
2021/03/15 08:01:25;;;;;;;5.10;2.00;;;;;;;1.96;91.21;95600.47;4911235;29;20083;-76
2021/03/15 08:03:51;;;;;;;3.80;1.93;;;;;;;2.12;90.97;95595.72;4916599;29;20495;-75
2021/03/15 08:06:18;;;;;;;3.80;2.10;;;;;;;2.06;90.92;95588.41;4930855;29;20467;-76
2021/03/15 08:08:45;;;;;;;8.23;2.60;;;;;;;2.03;91.71;95587.84;4915638;29;20480;-75
2021/03/15 08:11:15;;;;;;;4.63;2.03;;;;;;;1.98;91.04;95596.00;4929241;29;20471;-75
2021/03/15 08:13:53;;;;;;;5.40;2.40;;;;;;;1.98;91.29;95592.56;4901929;29;20464;-75
2021/03/15 08:16:21;;;;;;;5.73;2.50;;;;;;;1.99;91.03;95589.88;4907516;29;20471;-76
2021/03/15 08:18:48;;;;;;;4.87;2.53;;;;;;;2.07;91.33;95584.06;4913903;29;20524;-75
2021/03/15 08:21:25;;;;;;;4.50;2.43;;;;;;;2.07;91.83;95584.88;4902229;29;20487;-76
2021/03/15 08:23:54;;;;;;;6.93;2.70;;;;;;;2.02;91.39;95584.44;4922558;29;20483;-76
2021/03/15 08:26:22;;;;;;;5.27;2.33;;;;;;;1.96;91.42;95587.50;4927274;29;21056;-75
2021/03/15 08:28:52;;;;;;;4.33;1.83;;;;;;;2.01;91.66;95587.13;4908088;29;21028;-75
2021/03/15 08:31:27;;;;;;;4.63;2.40;;;;;;;2.02;91.79;95584.44;4902471;29;20468;-75
2021/03/15 08:33:53;;;;;;;5.73;2.03;;;;;;;2.03;91.65;95583.47;4934072;29;20482;-75
2021/03/15 08:36:19;;;;;;;4.50;2.17;;;;;;;2.02;91.62;95579.25;4917624;29;20456;-75
2021/03/15 08:38:45;;;;;;;3.97;2.03;;;;;;;1.91;91.49;95576.66;4920469;29;20482;-75
2021/03/15 08:41:17;;;;;;;4.10;1.93;;;;;;;1.88;91.58;95582.13;4921984;29;20065;-75
2021/03/15 08:43:43;;;;;;;3.97;1.97;;;;;;;1.67;91.21;95584.63;4919121;29;20505;-75
2021/03/15 08:46:15;;;;;;;3.87;1.83;;;;;;;1.78;91.45;95584.63;4919465;29;20482;-75
2021/03/15 08:48:41;;;;;;;3.30;2.07;;;;;;;1.83;90.99;95571.28;4932341;29;20479;-75
2021/03/15 08:51:29;;;;;;;3.10;1.93;;;;;;;1.84;91.40;95572.91;4919293;29;20464;-75
2021/03/15 08:53:55;;;;;;;4.53;2.03;;;;;;;1.80;92.75;95574.94;4900142;29;20050;-75
2021/03/15 08:56:21;;;;;;;4.77;2.13;;;;;;;1.93;92.16;95571.38;4918570;29;20549;-75
2021/03/15 08:58:50;;;;;;;4.83;2.00;;;;;;;1.84;91.96;95571.16;4905381;29;20028;-75
2021/03/15 09:01:21;;;;;;;6.63;2.20;;;;;;;1.95;92.48;95572.91;4928221;29;20038;-75
2021/03/15 09:03:54;;;;;;;5.43;2.80;;;;;;;2.05;91.87;95573.81;4904324;29;20484;-76
2021/03/15 09:09:05;;;;;;;3.13;1.73;;;;;;;2.05;91.82;95567.81;4942639;29;20036;-75
2021/03/15 09:11:36;;;;;;;4.88;1.80;;;;;;;2.04;91.70;95566.97;4931401;29;20464;-75
2021/03/15 09:14:18;;;;;;;4.50;2.23;;;;;;;2.09;92.13;95561.41;4929439;29;20115;-77
2021/03/15 09:16:54;;;;;;;4.80;2.00;;;;;;;2.05;91.94;95568.63;4936571;29;20473;-76
2021/03/15 09:19:28;;;;;;;4.17;2.20;;;;;;;2.01;91.85;95575.00;4927311;29;20471;-75
2021/03/15 09:21:55;;;;;;;4.60;2.50;;;;;;;1.91;91.85;95584.44;4931537;29;20464;-76
2021/03/15 09:24:40;;;;;;;5.67;2.50;;;;;;;1.99;92.58;95579.50;4925126;29;20543;-76
2021/03/15 09:27:30;;;;;;;7.03;3.67;;;;;;;2.05;92.46;95581.59;4922809;29;20475;-76
2021/03/15 09:30:00;;;;;;;4.50;1.90;;;;;;;1.94;92.11;95571.25;4928382;29;20502;-76
2021/03/15 09:32:35;;;;;;;4.27;1.90;;;;;;;1.91;91.68;95579.25;4928380;29;20455;-76
2021/03/15 09:35:14;;;;;;;5.37;1.90;;;;;;;1.79;91.60;95577.66;4908911;29;20474;-76
2021/03/15 09:38:00;;;;;;;5.07;2.00;;;;;;;1.74;92.41;95577.19;4935999;29;20522;-76
2021/03/15 09:40:35;;;;;;;4.20;1.90;;;;;;;1.80;92.44;95584.47;4893518;29;20483;-76
2021/03/15 09:43:02;;;;;;;3.50;1.67;;;;;;;2.21;93.55;95575.97;4899643;29;20471;-76
2021/03/15 09:45:56;;;;;;;3.43;1.70;;;;;;;2.15;92.66;95579.09;4912519;29;20447;-77
2021/03/15 09:48:24;;;;;;;5.93;1.80;;;;;;;1.97;91.65;95578.78;4909054;29;20483;-76
2021/03/15 09:51:01;;;;;;;4.33;1.80;;;;;;;2.08;92.12;95578.75;4934341;29;20495;-76
2021/03/15 09:53:55;;;;;;;3.47;1.60;;;;;;;2.19;93.17;95566.69;4921945;29;20468;-77
2021/03/15 09:56:29;;;;;;;5.90;3.03;;;;;;;2.36;92.49;95574.75;4894229;29;20456;-76
2021/03/15 09:59:11;;;;;;;5.05;2.20;;;;;;;2.32;91.70;95581.13;4934226;29;20475;-77
2021/03/15 10:01:46;;;;;;;3.63;1.80;;;;;;;2.29;91.81;95578.78;4933799;29;20040;-77
2021/03/15 10:04:38;;;;;;;2.87;1.70;;;;;;;2.37;91.81;95580.75;4928392;29;20546;-77
2021/03/15 10:07:22;;;;;;;2.93;1.57;;;;;;;2.60;92.15;95573.69;4924967;29;20499;-77
2021/03/15 10:10:12;;;;;;;3.13;1.50;;;;;;;2.40;91.71;95585.69;4934695;29;20928;-76
2021/03/15 10:13:06;;;;;;;2.77;1.87;;;;;;;2.43;91.55;95577.66;4899856;29;20044;-77
2021/03/15 10:15:40;;;;;;;4.10;2.10;;;;;;;2.44;91.94;95584.50;4912309;29;20558;-77
2021/03/15 10:18:20;;;;;;;2.10;1.40;;;;;;;2.43;91.44;95582.03;4933632;29;20039;-77
2021/03/15 10:20:50;;;;;;;2.77;1.67;;;;;;;2.58;91.70;95585.94;4915812;29;21042;-77
2021/03/15 10:23:21;;;;;;;3.80;1.60;;;;;;;2.47;91.68;95588.63;4905215;29;20462;-77
2021/03/15 10:26:01;;;;;;;3.03;1.63;;;;;;;2.49;92.57;95594.50;4912715;29;20466;-77
2021/03/15 10:28:48;;;;;;;7.73;3.33;;;;;;;2.46;91.98;95592.16;4906179;29;20898;-76
2021/03/15 10:31:18;;;;;;;4.77;2.43;;;;;;;2.44;92.06;95594.88;4898115;29;21328;-77
2021/03/15 10:33:46;;;;;;;5.53;1.83;;;;;;;2.47;92.43;95599.81;4916785;29;20456;-78
2021/03/15 10:36:17;;;;;;;2.20;1.23;;;;;;;2.46;92.88;95600.78;4915925;29;20460;-76
2021/03/15 10:38:43;;;;;;;7.73;4.00;;;;;;;2.43;92.55;95595.00;4898108;29;20482;-78
2021/03/15 10:41:09;;;;;;;5.37;2.70;;;;;;;2.43;92.88;95593.22;4915863;29;20460;-77
2021/03/15 10:43:35;;;;;;;12.33;7.43;;;;;;;2.44;92.63;95592.28;4903118;29;20044;-77
2021/03/15 10:46:29;;;;;;;30.60;19.33;;;;;;;2.59;92.56;95591.03;4918351;29;20463;-77
2021/03/15 10:49:13;;;;;;;20.57;12.10;;;;;;;2.72;92.47;95588.25;4914742;29;21329;-76
2021/03/15 10:51:43;;;;;;;28.67;11.30;;;;;;;2.56;92.20;95591.28;4907808;29;21099;-76
2021/03/15 10:54:35;;;;;;;77.97;33.57;;;;;;;2.56;91.78;95593.06;4933300;29;20495;-76
2021/03/15 10:57:19;;;;;;;35.47;13.83;;;;;;;2.70;91.90;95586.72;4919924;29;20994;-76
2021/03/15 10:59:50;;;;;;;118.30;39.57;;;;;;;2.76;92.12;95588.81;4920312;29;20544;-76
2021/03/15 11:02:25;;;;;;;174.30;61.43;;;;;;;2.74;92.00;95586.34;4918213;29;20063;-76
2021/03/15 11:05:06;;;;;;;47.07;25.63;;;;;;;2.71;91.95;95580.56;4913866;29;20542;-76
2021/03/15 11:07:38;;;;;;;98.63;47.73;;;;;;;2.78;92.01;95581.72;4910569;29;21087;-76
2021/03/15 11:10:18;;;;;;;73.50;39.57;;;;;;;2.74;91.60;95590.72;4926270;29;20036;-75
2021/03/15 11:12:52;;;;;;;58.67;30.43;;;;;;;2.83;92.08;95593.38;4919273;29;20733;-75
2021/03/15 11:15:29;;;;;;;35.53;19.87;;;;;;;2.83;92.27;95590.78;4905505;29;20528;-75
2021/03/15 11:18:01;;;;;;;35.33;19.57;;;;;;;2.73;92.37;95589.06;4919524;29;20405;-76
2021/03/15 11:20:38;;;;;;;160.93;58.93;;;;;;;2.74;91.98;95593.31;4919989;29;20046;-76
2021/03/15 11:23:05;;;;;;;36.83;15.07;;;;;;;2.72;91.81;95593.44;4918701;29;20046;-76
2021/03/15 11:25:32;;;;;;;128.43;58.30;;;;;;;2.83;92.42;95600.34;4916615;29;20024;-76
2021/03/15 11:28:10;;;;;;;97.17;51.70;;;;;;;2.90;92.03;95606.66;4918880;29;20040;-76
2021/03/15 11:30:39;;;;;;;144.20;92.73;;;;;;;2.95;91.87;95601.94;4900362;29;20032;-76
2021/03/15 11:33:12;;;;;;;8.67;4.53;;;;;;;3.05;91.85;95600.22;4905693;29;20036;-76
2021/03/15 11:36:00;;;;;;;3.23;2.20;;;;;;;3.06;91.06;95599.25;4920895;29;20040;-76
2021/03/15 11:38:34;;;;;;;4.43;3.60;;;;;;;3.20;90.69;95603.28;4899128;29;20039;-76
2021/03/15 11:41:15;;;;;;;5.10;3.40;;;;;;;3.34;91.60;95599.50;4915351;29;20067;-77
2021/03/15 11:43:41;;;;;;;4.47;1.80;;;;;;;3.39;90.48;95596.53;4889480;29;20036;-77
2021/03/15 11:46:07;;;;;;;2.30;0.80;;;;;;;3.45;91.01;95604.59;4915264;29;20036;-77
2021/03/15 11:48:33;;;;;;;3.03;2.27;;;;;;;3.35;91.26;95601.16;4907313;29;20059;-76
2021/03/15 11:51:25;;;;;;;2.53;1.70;;;;;;;3.57;91.44;95604.53;4917601;29;20039;-76
2021/03/15 11:54:19;;;;;;;1.93;1.33;;;;;;;3.63;91.17;95604.00;4934031;29;20040;-76
2021/03/15 11:57:04;;;;;;;1.80;1.17;;;;;;;3.39;90.65;95601.75;4898328;29;20034;-76
2021/03/15 11:59:32;;;;;;;2.03;1.10;;;;;;;3.37;91.44;95606.22;4904600;29;20032;-77
2021/03/15 12:02:08;;;;;;;1.80;1.00;;;;;;;3.30;91.39;95613.72;4906859;29;20688;-77